createdAt,value
2018-03-23T00:00:22.408Z,1002.81
2018-03-23T00:01:02.789Z,1002.8
2018-03-23T00:01:43.258Z,1002.81
2018-03-23T00:02:23.637Z,1002.77
2018-03-23T00:03:04.034Z,1002.76
2018-03-23T00:03:44.426Z,1002.76
2018-03-23T00:04:24.872Z,1002.72
2018-03-23T00:05:05.169Z,1002.79
2018-03-23T00:05:45.668Z,1002.78
2018-03-23T00:06:26.046Z,1002.75
2018-03-23T00:07:06.366Z,1002.79
2018-03-23T00:07:46.764Z,1002.74
2018-03-23T00:08:27.200Z,1002.72
2018-03-23T00:09:07.590Z,1002.74
2018-03-23T00:09:47.969Z,1002.74
2018-03-23T00:10:28.395Z,1002.74
2018-03-23T00:11:08.708Z,1002.73
2018-03-23T00:11:49.135Z,1002.72
2018-03-23T00:12:29.566Z,1002.72
2018-03-23T00:13:09.945Z,1002.7
2018-03-23T00:13:50.311Z,1002.69
2018-03-23T00:14:30.695Z,1002.66
2018-03-23T00:15:11.103Z,1002.68
2018-03-23T00:15:51.433Z,1002.66
2018-03-23T00:16:31.880Z,1002.65
2018-03-23T00:17:12.220Z,1002.66
2018-03-23T00:17:52.671Z,1002.64
2018-03-23T00:18:33.022Z,1002.64
2018-03-23T00:19:13.430Z,1002.63
2018-03-23T00:19:53.852Z,1002.62
2018-03-23T00:20:34.194Z,1002.6
2018-03-23T00:21:14.613Z,1002.63
2018-03-23T00:21:54.980Z,1002.6
2018-03-23T00:22:35.387Z,1002.59
2018-03-23T00:23:15.741Z,1002.55
2018-03-23T00:23:56.194Z,1002.58
2018-03-23T00:24:36.569Z,1002.55
2018-03-23T00:25:16.930Z,1002.55
2018-03-23T00:25:57.320Z,1002.55
2018-03-23T00:26:37.674Z,1002.54
2018-03-23T00:27:18.104Z,1002.56
2018-03-23T00:27:58.487Z,1002.53
2018-03-23T00:28:38.927Z,1002.5
2018-03-23T00:29:19.886Z,1002.52
2018-03-23T00:30:00.072Z,1002.53
2018-03-23T00:30:40.492Z,1002.56
2018-03-23T00:31:20.827Z,1002.51
2018-03-23T00:32:01.286Z,1002.46
2018-03-23T00:32:41.635Z,1002.49
2018-03-23T00:33:22.087Z,1002.48
2018-03-23T00:34:02.488Z,1002.51
2018-03-23T00:34:42.776Z,1002.5
2018-03-23T00:35:23.217Z,1002.5
2018-03-23T00:36:03.555Z,1002.48
2018-03-23T00:36:43.927Z,1002.48
2018-03-23T00:37:24.375Z,1002.48
2018-03-23T00:38:04.710Z,1002.48
2018-03-23T00:38:45.084Z,1002.46
2018-03-23T00:39:25.544Z,1002.45
2018-03-23T00:40:05.874Z,1002.44
2018-03-23T00:40:46.278Z,1002.47
2018-03-23T00:41:26.694Z,1002.44
2018-03-23T00:42:07.040Z,1002.47
2018-03-23T00:42:47.446Z,1002.46
2018-03-23T00:43:27.846Z,1002.45
2018-03-23T00:44:08.230Z,1002.44
2018-03-23T00:44:48.581Z,1002.46
2018-03-23T00:45:28.955Z,1002.46
2018-03-23T00:46:09.356Z,1002.45
2018-03-23T00:46:49.795Z,1002.45
2018-03-23T00:47:30.111Z,1002.43
2018-03-23T00:48:10.523Z,1002.42
2018-03-23T00:48:50.960Z,1002.42
2018-03-23T00:49:31.272Z,1002.44
2018-03-23T00:50:11.748Z,1002.44
2018-03-23T00:50:52.080Z,1002.39
2018-03-23T00:51:32.477Z,1002.43
2018-03-23T00:52:12.886Z,1002.42
2018-03-23T00:52:53.246Z,1002.42
2018-03-23T00:53:33.687Z,1002.44
2018-03-23T00:54:14.062Z,1002.41
2018-03-23T00:54:54.781Z,1002.42
2018-03-23T00:55:35.194Z,1002.38
2018-03-23T00:56:15.807Z,1002.33
2018-03-23T00:56:56.144Z,1002.36
2018-03-23T00:57:36.573Z,1002.35
2018-03-23T00:58:16.916Z,1002.37
2018-03-23T00:58:57.329Z,1002.39
2018-03-23T00:59:37.697Z,1002.34
2018-03-23T01:00:18.084Z,1002.35
2018-03-23T01:00:58.526Z,1002.32
2018-03-23T01:01:38.892Z,1002.29
2018-03-23T01:02:19.303Z,1002.26
2018-03-23T01:02:59.734Z,1002.28
2018-03-23T01:03:40.069Z,1002.29
2018-03-23T01:04:20.467Z,1002.29
2018-03-23T01:05:00.868Z,1002.26
2018-03-23T01:05:41.289Z,1002.29
2018-03-23T01:06:21.709Z,1002.27
2018-03-23T01:07:02.058Z,1002.26
2018-03-23T01:07:42.509Z,1002.26
2018-03-23T01:08:22.984Z,1002.26
2018-03-23T01:09:03.713Z,1002.25
2018-03-23T01:09:44.026Z,1002.24
2018-03-23T01:10:24.428Z,1002.23
2018-03-23T01:11:04.839Z,1002.21
2018-03-23T01:11:45.169Z,1002.25
2018-03-23T01:12:25.570Z,1002.22
2018-03-23T01:13:05.965Z,1002.2
2018-03-23T01:13:46.395Z,1002.19
2018-03-23T01:14:26.772Z,1002.2
2018-03-23T01:15:07.150Z,1002.23
2018-03-23T01:15:47.577Z,1002.21
2018-03-23T01:16:28.028Z,1002.2
2018-03-23T01:17:08.346Z,1002.17
2018-03-23T01:17:48.725Z,1002.15
2018-03-23T01:18:29.105Z,1002.1
2018-03-23T01:19:09.529Z,1002.13
2018-03-23T01:19:49.898Z,1002.1
2018-03-23T01:20:30.324Z,1002.1
2018-03-23T01:21:10.716Z,1002.11
2018-03-23T01:21:51.068Z,1002.13
2018-03-23T01:22:31.471Z,1002.14
2018-03-23T01:23:11.834Z,1002.12
2018-03-23T01:23:52.344Z,1002.13
2018-03-23T01:24:32.682Z,1002.12
2018-03-23T01:25:13.086Z,1002.1
2018-03-23T01:25:53.525Z,1002.08
2018-03-23T01:26:34.089Z,1002.08
2018-03-23T01:27:14.383Z,1002.07
2018-03-23T01:27:54.773Z,1002.09
2018-03-23T01:28:35.218Z,1002.07
2018-03-23T01:29:15.619Z,1002.08
2018-03-23T01:29:55.993Z,1002.03
2018-03-23T01:30:36.375Z,1002.01
2018-03-23T01:31:16.813Z,1002.05
2018-03-23T01:31:57.210Z,1001.98
2018-03-23T01:32:37.626Z,1002
2018-03-23T01:33:17.995Z,1001.99
2018-03-23T01:33:58.399Z,1002
2018-03-23T01:34:38.833Z,1002.01
2018-03-23T01:35:19.390Z,1001.99
2018-03-23T01:35:59.919Z,1001.96
2018-03-23T01:36:40.940Z,1001.97
2018-03-23T01:37:21.354Z,1001.95
2018-03-23T01:38:01.703Z,1001.95
2018-03-23T01:38:42.137Z,1001.95
2018-03-23T01:39:22.556Z,1001.97
2018-03-23T01:40:02.899Z,1001.94
2018-03-23T01:40:43.350Z,1001.89
2018-03-23T01:41:23.673Z,1001.94
2018-03-23T01:42:04.067Z,1001.91
2018-03-23T01:42:44.478Z,1001.89
2018-03-23T01:43:24.886Z,1001.92
2018-03-23T01:44:05.292Z,1001.9
2018-03-23T01:44:45.687Z,1001.89
2018-03-23T01:45:26.053Z,1001.92
2018-03-23T01:46:06.437Z,1001.87
2018-03-23T01:46:46.844Z,1001.87
2018-03-23T01:47:27.248Z,1001.86
2018-03-23T01:48:07.661Z,1001.87
2018-03-23T01:48:48.047Z,1001.88
2018-03-23T01:49:28.399Z,1001.84
2018-03-23T01:50:08.830Z,1001.86
2018-03-23T01:50:49.307Z,1001.89
2018-03-23T01:51:29.669Z,1001.89
2018-03-23T01:52:10.065Z,1001.83
2018-03-23T01:52:50.519Z,1001.87
2018-03-23T01:53:30.913Z,1001.83
2018-03-23T01:54:11.284Z,1001.81
2018-03-23T01:54:51.674Z,1001.76
2018-03-23T01:55:32.090Z,1001.77
2018-03-23T01:56:12.526Z,1001.81
2018-03-23T01:56:52.927Z,1001.75
2018-03-23T01:57:33.260Z,1001.76
2018-03-23T01:58:13.720Z,1001.76
2018-03-23T01:58:54.099Z,1001.77
2018-03-23T01:59:34.452Z,1001.74
2018-03-23T02:00:14.833Z,1001.74
2018-03-23T02:00:55.265Z,1001.7
2018-03-23T02:01:35.719Z,1001.72
2018-03-23T02:02:16.011Z,1001.71
2018-03-23T02:02:56.428Z,1001.7
2018-03-23T02:03:36.922Z,1001.7
2018-03-23T02:04:17.209Z,1001.7
2018-03-23T02:04:57.704Z,1001.68
2018-03-23T02:05:38.024Z,1001.73
2018-03-23T02:06:18.412Z,1001.7
2018-03-23T02:06:58.833Z,1001.66
2018-03-23T02:07:39.296Z,1001.71
2018-03-23T02:08:19.612Z,1001.67
2018-03-23T02:09:00.018Z,1001.66
2018-03-23T02:09:40.493Z,1001.67
2018-03-23T02:10:20.923Z,1001.7
2018-03-23T02:11:01.276Z,1001.65
2018-03-23T02:11:41.695Z,1001.69
2018-03-23T02:12:22.081Z,1001.65
2018-03-23T02:13:02.459Z,1001.65
2018-03-23T02:13:42.860Z,1001.64
2018-03-23T02:14:24.148Z,1001.63
2018-03-23T02:15:04.404Z,1001.61
2018-03-23T02:15:44.858Z,1001.64
2018-03-23T02:16:25.312Z,1001.62
2018-03-23T02:17:06.985Z,1001.62
2018-03-23T02:17:47.396Z,1001.63
2018-03-23T02:18:27.839Z,1001.64
2018-03-23T02:19:08.229Z,1001.62
2018-03-23T02:19:48.585Z,1001.61
2018-03-23T02:20:29.071Z,1001.59
2018-03-23T02:21:09.344Z,1001.6
2018-03-23T02:21:49.771Z,1001.58
2018-03-23T02:22:30.228Z,1001.57
2018-03-23T02:23:10.874Z,1001.58
2018-03-23T02:23:51.042Z,1001.57
2018-03-23T02:24:31.385Z,1001.55
2018-03-23T02:25:11.976Z,1001.52
2018-03-23T02:25:52.204Z,1001.53
2018-03-23T02:28:20.289Z,1001.46
2018-03-23T02:29:01.624Z,1001.43
2018-03-23T02:29:41.472Z,1001.45
2018-03-23T02:30:22.685Z,1001.43
2018-03-23T02:31:02.791Z,1001.45
2018-03-23T02:31:43.237Z,1001.46
2018-03-23T02:32:24.014Z,1001.41
2018-03-23T02:33:04.424Z,1001.39
2018-03-23T02:33:44.675Z,1001.43
2018-03-23T02:34:25.090Z,1001.37
2018-03-23T02:35:05.442Z,1001.38
2018-03-23T02:35:46.333Z,1001.36
2018-03-23T02:36:26.333Z,1001.35
2018-03-23T02:37:06.720Z,1001.38
2018-03-23T02:37:47.098Z,1001.35
2018-03-23T02:38:27.488Z,1001.39
2018-03-23T02:39:07.922Z,1001.35
2018-03-23T02:39:48.305Z,1001.36
2018-03-23T02:40:28.610Z,1001.35
2018-03-23T02:41:09.392Z,1001.35
2018-03-23T02:41:49.612Z,1001.36
2018-03-23T02:42:30.086Z,1001.4
2018-03-23T02:43:10.591Z,1001.34
2018-03-23T02:43:50.837Z,1001.36
2018-03-23T02:44:31.301Z,1001.38
2018-03-23T02:45:11.726Z,1001.36
2018-03-23T02:45:52.120Z,1001.36
2018-03-23T02:46:32.496Z,1001.37
2018-03-23T02:47:12.913Z,1001.34
2018-03-23T02:47:53.342Z,1001.36
2018-03-23T02:48:33.984Z,1001.37
2018-03-23T02:49:14.158Z,1001.41
2018-03-23T02:49:54.760Z,1001.4
2018-03-23T02:50:35.148Z,1001.39
2018-03-23T02:51:15.622Z,1001.41
2018-03-23T02:51:56.044Z,1001.37
2018-03-23T02:52:36.407Z,1001.36
2018-03-23T02:53:16.915Z,1001.36
2018-03-23T02:53:57.372Z,1001.29
2018-03-23T02:54:37.733Z,1001.32
2018-03-23T02:55:18.155Z,1001.33
2018-03-23T02:55:58.585Z,1001.33
2018-03-23T02:56:39.068Z,1001.34
2018-03-23T02:57:19.556Z,1001.34
2018-03-23T02:58:00.051Z,1001.34
2018-03-23T02:58:40.367Z,1001.3
2018-03-23T02:59:20.769Z,1001.3
2018-03-23T03:00:01.231Z,1001.34
2018-03-23T03:00:41.866Z,1001.29
2018-03-23T03:01:22.248Z,1001.3
2018-03-23T03:02:02.589Z,1001.31
2018-03-23T03:02:43.057Z,1001.28
2018-03-23T03:03:23.447Z,1001.27
2018-03-23T03:04:03.907Z,1001.35
2018-03-23T03:04:44.274Z,1001.24
2018-03-23T03:05:24.931Z,1001.28
2018-03-23T03:06:05.445Z,1001.24
2018-03-23T03:06:45.822Z,1001.29
2018-03-23T03:07:26.761Z,1001.22
2018-03-23T03:08:07.164Z,1001.23
2018-03-23T03:08:47.863Z,1001.29
2018-03-23T03:09:28.061Z,1001.27
2018-03-23T03:10:08.438Z,1001.25
2018-03-23T03:10:48.879Z,1001.27
2018-03-23T03:11:29.312Z,1001.21
2018-03-23T03:12:09.811Z,1001.23
2018-03-23T03:12:50.143Z,1001.22
2018-03-23T03:13:30.677Z,1001.24
2018-03-23T03:14:11.078Z,1001.21
2018-03-23T03:14:51.615Z,1001.23
2018-03-23T03:15:31.994Z,1001.2
2018-03-23T03:16:12.733Z,1001.15
2018-03-23T03:16:53.726Z,1001.15
2018-03-23T03:17:34.079Z,1001.21
2018-03-23T03:18:14.480Z,1001.18
2018-03-23T03:18:54.872Z,1001.15
2018-03-23T03:19:35.258Z,1001.12
2018-03-23T03:20:15.671Z,1001.11
2018-03-23T03:20:56.094Z,1001.12
2018-03-23T03:21:36.592Z,1001.05
2018-03-23T03:22:17.058Z,1001.08
2018-03-23T03:22:57.922Z,1001
2018-03-23T03:23:38.384Z,1001.03
2018-03-23T03:24:18.818Z,1001.05
2018-03-23T03:24:59.589Z,1001.07
2018-03-23T03:25:40.196Z,1001.04
2018-03-23T03:26:20.545Z,1001.04
2018-03-23T03:27:00.849Z,1001.01
2018-03-23T03:27:41.588Z,1001
2018-03-23T03:28:21.884Z,1001.02
2018-03-23T03:29:02.291Z,1001.03
2018-03-23T03:29:42.696Z,1001.02
2018-03-23T03:30:23.461Z,1001.03
2018-03-23T03:31:04.255Z,1000.98
2018-03-23T03:31:45.574Z,1000.98
2018-03-23T03:32:26.300Z,1000.98
2018-03-23T03:33:06.702Z,1000.92
2018-03-23T03:33:49.084Z,1000.92
2018-03-23T03:34:29.216Z,1000.93
2018-03-23T03:35:10.356Z,1000.92
2018-03-23T03:35:51.580Z,1000.98
2018-03-23T03:36:31.992Z,1000.87
2018-03-23T03:37:12.426Z,1000.94
2018-03-23T03:37:53.003Z,1000.9
2018-03-23T03:38:33.400Z,1000.93
2018-03-23T03:42:30.283Z,1000.9
2018-03-23T03:44:46.291Z,1000.91
2018-03-23T03:45:26.981Z,1000.87
2018-03-23T03:46:07.547Z,1000.85
2018-03-23T03:46:47.932Z,1000.89
2018-03-23T03:47:28.330Z,1000.89
2018-03-23T03:48:08.957Z,1000.81
2018-03-23T03:48:49.227Z,1000.85
2018-03-23T03:49:29.655Z,1000.85
2018-03-23T03:50:11.048Z,1000.85
2018-03-23T03:50:50.464Z,1000.84
2018-03-23T03:51:30.892Z,1000.83
2018-03-23T03:52:11.226Z,1000.83
2018-03-23T03:52:51.687Z,1000.85
2018-03-23T03:53:32.284Z,1000.79
2018-03-23T03:54:12.554Z,1000.85
2018-03-23T03:54:53.917Z,1000.82
2018-03-23T03:55:34.728Z,1000.82
2018-03-23T03:56:15.233Z,1000.82
2018-03-23T03:56:55.701Z,1000.87
2018-03-23T03:57:36.059Z,1000.86
2018-03-23T03:58:16.820Z,1000.81
2018-03-23T03:58:57.342Z,1000.81
2018-03-23T03:59:37.952Z,1000.83
2018-03-23T04:00:18.407Z,1000.85
2018-03-23T04:00:58.805Z,1000.86
2018-03-23T04:01:39.886Z,1000.84
2018-03-23T04:02:20.203Z,1000.83
2018-03-23T04:03:02.280Z,1000.88
2018-03-23T04:03:42.633Z,1000.83
2018-03-23T04:04:23.076Z,1000.84
2018-03-23T04:05:03.956Z,1000.84
2018-03-23T04:05:44.418Z,1000.87
2018-03-23T04:06:25.179Z,1000.85
2018-03-23T04:07:05.484Z,1000.86
2018-03-23T04:07:45.899Z,1000.82
2018-03-23T04:46:08.157Z,1000.51
2018-03-23T04:46:48.587Z,1000.47
2018-03-23T04:47:29.881Z,1000.5
2018-03-23T04:48:10.496Z,1000.45
2018-03-23T04:48:50.956Z,1000.43
2018-03-23T04:49:31.383Z,1000.43
2018-03-23T04:50:11.695Z,1000.45
2018-03-23T04:50:52.047Z,1000.46
2018-03-23T04:51:32.436Z,1000.42
2018-03-23T04:52:13.028Z,1000.47
2018-03-23T04:52:53.372Z,1000.43
2018-03-23T04:53:33.958Z,1000.43
2018-03-23T04:54:14.304Z,1000.43
2018-03-23T04:54:54.547Z,1000.38
2018-03-23T04:55:34.947Z,1000.43
2018-03-23T04:56:15.343Z,1000.37
2018-03-23T04:56:55.793Z,1000.37
2018-03-23T04:57:36.129Z,1000.38
2018-03-23T04:58:16.527Z,1000.38
2018-03-23T04:58:56.921Z,1000.38
2018-03-23T04:59:37.472Z,1000.41
2018-03-23T05:00:18.128Z,1000.37
2018-03-23T05:00:58.577Z,1000.34
2018-03-23T05:01:39.650Z,1000.39
2018-03-23T05:02:20.056Z,1000.39
2018-03-23T05:03:00.479Z,1000.35
2018-03-23T05:03:40.835Z,1000.34
2018-03-23T05:04:21.258Z,1000.36
2018-03-23T05:05:01.632Z,1000.35
2018-03-23T05:05:42.031Z,1000.37
2018-03-23T05:06:22.480Z,1000.36
2018-03-23T05:07:02.844Z,1000.39
2018-03-23T05:07:43.217Z,1000.38
2018-03-23T05:08:23.675Z,1000.36
2018-03-23T05:09:04.005Z,1000.36
2018-03-23T05:09:44.484Z,1000.34
2018-03-23T05:10:24.919Z,1000.37
2018-03-23T05:11:05.680Z,1000.37
2018-03-23T05:11:47.155Z,1000.36
2018-03-23T05:12:27.508Z,1000.39
2018-03-23T05:13:08.833Z,1000.37
2018-03-23T05:13:49.180Z,1000.43
2018-03-23T05:14:29.599Z,1000.38
2018-03-23T05:15:09.981Z,1000.37
2018-03-23T05:15:50.366Z,1000.38
2018-03-23T05:16:30.811Z,1000.35
2018-03-23T05:17:11.144Z,1000.35
2018-03-23T05:17:51.923Z,1000.3
2018-03-23T05:18:32.812Z,1000.31
2018-03-23T05:19:13.172Z,1000.28
2018-03-23T05:19:53.763Z,1000.29
2018-03-23T05:20:34.244Z,1000.24
2018-03-23T05:21:14.545Z,1000.27
2018-03-23T05:21:54.789Z,1000.24
2018-03-23T05:22:35.607Z,1000.23
2018-03-23T05:23:16.907Z,1000.28
2018-03-23T05:23:57.317Z,1000.24
2018-03-23T05:24:37.796Z,1000.25
2018-03-23T05:25:18.226Z,1000.18
2018-03-23T05:25:58.571Z,1000.2
2018-03-23T05:26:39.050Z,1000.17
2018-03-23T05:27:19.479Z,1000.22
2018-03-23T05:28:00.345Z,1000.22
2018-03-23T05:28:41.568Z,1000.19
2018-03-23T05:29:22.237Z,1000.18
2018-03-23T05:30:02.741Z,1000.16
2018-03-23T05:30:43.338Z,1000.18
2018-03-23T05:31:23.990Z,1000.2
2018-03-23T05:32:05.152Z,1000.18
2018-03-23T05:32:46.142Z,1000.19
2018-03-23T05:33:28.455Z,1000.16
2018-03-23T05:34:08.794Z,1000.19
2018-03-23T05:34:50.096Z,1000.22
2018-03-23T05:35:30.569Z,1000.2
2018-03-23T05:36:11.569Z,1000.19
2018-03-23T05:36:52.000Z,1000.23
2018-03-23T05:37:32.504Z,1000.21
2018-03-23T05:38:12.784Z,1000.23
2018-03-23T05:38:53.545Z,1000.21
2018-03-23T05:39:35.855Z,1000.2
2018-03-23T05:40:17.990Z,1000.23
2018-03-23T05:40:59.791Z,1000.25
2018-03-23T05:41:40.502Z,1000.18
2018-03-23T05:42:24.785Z,1000.26
2018-03-23T05:43:04.319Z,1000.22
2018-03-23T05:43:45.501Z,1000.19
2018-03-23T05:44:26.499Z,1000.17
2018-03-23T05:45:07.121Z,1000.23
2018-03-23T05:45:48.563Z,1000.22
2018-03-23T05:46:28.849Z,1000.23
2018-03-23T05:47:09.299Z,1000.21
2018-03-23T05:47:52.763Z,1000.21
2018-03-23T05:48:32.831Z,1000.2
2018-03-23T05:49:13.294Z,1000.24
2018-03-23T05:49:54.826Z,1000.21
2018-03-23T05:50:35.252Z,1000.24
2018-03-23T05:51:15.611Z,1000.22
2018-03-23T05:51:56.808Z,1000.23
2018-03-23T05:52:38.539Z,1000.25
2018-03-23T05:53:19.253Z,1000.2
2018-03-23T05:53:59.830Z,1000.17
2018-03-23T05:54:41.378Z,1000.2
2018-03-23T05:55:21.650Z,1000.21
2018-03-23T05:56:03.242Z,1000.16
2018-03-23T05:56:43.620Z,1000.17
2018-03-23T05:57:24.690Z,1000.14
2018-03-23T05:58:04.863Z,1000.19
2018-03-23T05:58:45.300Z,1000.16
2018-03-23T05:59:25.728Z,1000.15
2018-03-23T06:00:06.614Z,1000.2
2018-03-23T06:00:50.395Z,1000.18
2018-03-23T06:01:30.903Z,1000.19
2018-03-23T06:02:11.205Z,1000.22
2018-03-23T06:02:51.632Z,1000.21
2018-03-23T06:03:47.216Z,1000.17
2018-03-23T06:04:27.542Z,1000.21
2018-03-23T06:05:08.213Z,1000.15
2018-03-23T06:05:49.045Z,1000.22
2018-03-23T06:06:29.491Z,1000.22
2018-03-23T06:07:09.890Z,1000.18
2018-03-23T06:07:50.523Z,1000.22
2018-03-23T06:08:30.854Z,1000.21
2018-03-23T06:09:11.518Z,1000.18
2018-03-23T06:09:52.388Z,1000.13
2018-03-23T06:10:32.758Z,1000.16
2018-03-23T06:11:13.191Z,1000.16
2018-03-23T06:11:53.815Z,1000.13
2018-03-23T06:12:35.700Z,1000.14
2018-03-23T06:13:16.407Z,1000.15
2018-03-23T06:13:56.773Z,1000.12
2018-03-23T06:14:39.655Z,1000.14
2018-03-23T06:15:19.890Z,1000.12
2018-03-23T06:16:00.384Z,1000.17
2018-03-23T06:16:41.535Z,1000.16
2018-03-23T06:17:21.983Z,1000.11
2018-03-23T06:18:02.882Z,1000.16
2018-03-23T06:18:43.293Z,1000.12
2018-03-23T06:19:23.613Z,1000.13
2018-03-23T06:20:04.055Z,1000.14
2018-03-23T06:20:44.492Z,1000.13
2018-03-23T06:21:24.824Z,1000.17
2018-03-23T06:22:05.185Z,1000.13
2018-03-23T06:22:45.938Z,1000.14
2018-03-23T06:23:26.469Z,1000.16
2018-03-23T06:24:06.815Z,1000.15
2018-03-23T06:24:47.350Z,1000.15
2018-03-23T06:25:27.759Z,1000.11
2018-03-23T06:26:08.316Z,1000.1
2018-03-23T06:26:48.616Z,1000.14
2018-03-23T06:27:29.008Z,1000.15
2018-03-23T06:28:09.302Z,1000.09
2018-03-23T06:28:49.731Z,1000.13
2018-03-23T06:29:30.266Z,1000.1
2018-03-23T06:30:12.067Z,1000.12
2018-03-23T06:30:52.470Z,1000.16
2018-03-23T06:31:32.900Z,1000.05
2018-03-23T06:32:14.768Z,1000.16
2018-03-23T06:32:57.488Z,1000.18
2018-03-23T06:33:38.134Z,1000.21
2018-03-23T06:34:18.578Z,1000.22
2018-03-23T06:34:58.972Z,1000.17
2018-03-23T06:35:39.421Z,1000.18
2018-03-23T06:36:20.100Z,1000.17
2018-03-23T06:37:00.517Z,1000.18
2018-03-23T06:37:41.133Z,1000.2
2018-03-23T06:38:22.876Z,1000.19
2018-03-23T06:39:03.636Z,1000.16
2018-03-23T06:39:44.365Z,1000.15
2018-03-23T06:40:24.678Z,1000.15
2018-03-23T06:41:05.091Z,1000.12
2018-03-23T06:41:45.533Z,1000.13
2018-03-23T06:42:25.885Z,1000.12
2018-03-23T06:43:06.274Z,1000.07
2018-03-23T06:43:46.682Z,1000.1
2018-03-23T06:44:27.161Z,1000.13
2018-03-23T06:45:07.464Z,1000.08
2018-03-23T06:45:47.931Z,1000.06
2018-03-23T06:46:28.275Z,1000.06
2018-03-23T06:47:08.694Z,1000.11
2018-03-23T06:47:49.195Z,1000.09
2018-03-23T06:48:29.476Z,1000.09
2018-03-23T06:49:11.171Z,1000.1
2018-03-23T06:49:52.353Z,1000.06
2018-03-23T06:50:32.757Z,1000.1
2018-03-23T06:51:13.196Z,1000.08
2018-03-23T06:51:54.449Z,1000.1
2018-03-23T06:52:37.002Z,1000.03
2018-03-23T06:53:18.024Z,1000.06
2018-03-23T06:53:58.256Z,1000.05
2018-03-23T06:54:38.848Z,1000.01
2018-03-23T06:55:19.891Z,1000.07
2018-03-23T06:56:01.515Z,1000.04
2018-03-23T06:56:42.554Z,999.98
2018-03-23T06:57:22.292Z,1000.06
2018-03-23T06:58:03.282Z,999.97
2018-03-23T06:58:43.872Z,1000
2018-03-23T06:59:25.022Z,1000.02
2018-03-23T07:00:06.061Z,999.97
2018-03-23T07:00:46.317Z,1000
2018-03-23T07:01:26.954Z,1000
2018-03-23T07:02:08.002Z,999.99
2018-03-23T07:02:49.215Z,999.99
2018-03-23T07:03:30.613Z,999.95
2018-03-23T07:04:11.532Z,999.97
2018-03-23T07:04:51.810Z,999.99
2018-03-23T07:05:32.210Z,1000
2018-03-23T07:06:12.648Z,1000
2018-03-23T07:06:53.004Z,1000.03
2018-03-23T07:07:33.483Z,999.99
2018-03-23T07:08:13.931Z,1000
2018-03-23T07:08:54.387Z,999.96
2018-03-23T07:09:34.904Z,999.99
2018-03-23T07:10:15.574Z,999.98
2018-03-23T07:10:55.919Z,999.98
2018-03-23T07:11:38.686Z,999.97
2018-03-23T07:12:19.269Z,999.97
2018-03-23T07:12:59.655Z,999.98
2018-03-23T07:13:39.977Z,1000
2018-03-23T07:14:21.849Z,999.98
2018-03-23T07:15:02.246Z,999.94
2018-03-23T07:19:06.818Z,999.99
2018-03-23T07:19:53.916Z,999.99
2018-03-23T07:20:40.027Z,999.97
2018-03-23T07:21:34.111Z,999.98
2018-03-23T07:22:59.900Z,999.95
2018-03-23T07:26:03.997Z,999.96
2018-03-23T07:29:53.204Z,999.99
2018-03-23T07:30:32.922Z,999.96
2018-03-23T07:31:13.614Z,1000
2018-03-23T07:31:54.371Z,999.94
2018-03-23T07:32:34.923Z,999.93
2018-03-23T07:33:15.456Z,999.91
2018-03-23T07:33:55.940Z,999.95
2018-03-23T07:34:36.527Z,999.94
2018-03-23T07:35:17.014Z,999.92
2018-03-23T07:35:57.503Z,999.92
2018-03-23T07:36:38.325Z,999.98
2018-03-23T07:37:20.163Z,999.95
2018-03-23T07:38:02.753Z,999.94
2018-03-23T07:38:43.629Z,999.99
2018-03-23T07:39:23.959Z,999.95
2018-03-23T07:40:04.584Z,999.92
2018-03-23T07:40:45.268Z,999.92
2018-03-23T07:41:26.120Z,999.94
2018-03-23T07:42:06.076Z,999.92
2018-03-23T07:42:46.824Z,999.92
2018-03-23T07:44:03.076Z,999.88
2018-03-23T07:44:46.643Z,999.9
2018-03-23T07:45:27.569Z,999.87
2018-03-23T07:46:08.882Z,999.83
2018-03-23T07:46:49.484Z,999.86
2018-03-23T07:47:30.859Z,999.83
2018-03-23T07:48:12.026Z,999.81
2018-03-23T07:48:52.270Z,999.82
2018-03-23T07:49:32.955Z,999.79
2018-03-23T07:50:13.244Z,999.76
2018-03-23T07:50:53.749Z,999.74
2018-03-23T07:51:39.292Z,999.75
2018-03-23T07:52:19.846Z,999.79
2018-03-23T07:53:00.881Z,999.78
2018-03-23T07:53:41.008Z,999.79
2018-03-23T07:54:22.257Z,999.79
2018-03-23T07:55:02.767Z,999.74
2018-03-23T07:55:43.592Z,999.76
2018-03-23T07:56:24.399Z,999.73
2018-03-23T07:57:05.345Z,999.76
2018-03-23T07:57:46.076Z,999.75
2018-03-23T07:58:27.227Z,999.77
2018-03-23T07:59:07.446Z,999.77
2018-03-23T07:59:50.417Z,999.73
2018-03-23T08:00:31.421Z,999.75
2018-03-23T08:01:13.236Z,999.67
2018-03-23T08:01:54.970Z,999.76
2018-03-23T08:02:35.898Z,999.74
2018-03-23T08:03:16.563Z,999.77
2018-03-23T08:03:57.158Z,999.73
2018-03-23T08:04:38.581Z,999.68
2018-03-23T08:05:20.140Z,999.74
2018-03-23T08:06:04.730Z,999.72
2018-03-23T08:06:47.188Z,999.73
2018-03-23T08:07:27.744Z,999.67
2018-03-23T08:08:08.212Z,999.68
2018-03-23T08:08:48.985Z,999.68
2018-03-23T08:09:29.761Z,999.67
2018-03-23T08:10:09.998Z,999.65
2018-03-23T08:10:53.644Z,999.66
2018-03-23T08:11:34.893Z,999.59
2018-03-23T08:13:51.174Z,999.57
2018-03-23T08:14:30.764Z,999.52
2018-03-23T08:15:11.610Z,999.59
2018-03-23T08:15:52.035Z,999.61
2018-03-23T08:16:38.641Z,999.61
2018-03-23T08:17:19.013Z,999.53
2018-03-23T08:18:01.191Z,999.62
2018-03-23T08:18:43.980Z,999.53
2018-03-23T08:19:27.034Z,999.61
2018-03-23T08:20:10.003Z,999.54
2018-03-23T08:20:50.951Z,999.62
2018-03-23T08:21:31.529Z,999.6
2018-03-23T08:24:01.256Z,999.55
2018-03-23T08:32:50.324Z,999.43
2018-03-23T08:45:40.062Z,999.4
2018-03-23T08:48:46.042Z,999.34
2018-03-23T08:49:24.071Z,999.34
2018-03-23T08:50:04.596Z,999.35
2018-03-23T08:50:45.560Z,999.31
2018-03-23T08:51:35.389Z,999.3
2018-03-23T08:52:16.088Z,999.34
2018-03-23T08:52:56.428Z,999.31
2018-03-23T08:53:37.583Z,999.32
2018-03-23T08:54:18.001Z,999.37
2018-03-23T08:54:58.610Z,999.4
2018-03-23T08:55:40.089Z,999.37
2018-03-23T08:56:21.698Z,999.35
2018-03-23T08:57:01.891Z,999.38
2018-03-23T08:57:43.356Z,999.37
2018-03-23T08:58:23.857Z,999.33
2018-03-23T08:59:04.426Z,999.29
2018-03-23T08:59:45.366Z,999.29
2018-03-23T09:00:25.767Z,999.33
2018-03-23T09:01:07.076Z,999.28
2018-03-23T09:01:48.177Z,999.28
2018-03-23T09:02:28.844Z,999.33
2018-03-23T09:03:09.305Z,999.25
2018-03-23T09:03:50.242Z,999.27
2018-03-23T09:04:32.390Z,999.33
2018-03-23T09:05:13.152Z,999.33
2018-03-23T09:05:53.960Z,999.35
2018-03-23T09:06:36.676Z,999.26
2018-03-23T09:07:17.367Z,999.29
2018-03-23T09:08:00.316Z,999.3
2018-03-23T09:08:40.407Z,999.28
2018-03-23T09:09:21.016Z,999.3
2018-03-23T09:10:02.319Z,999.28
2018-03-23T09:10:43.039Z,999.29
2018-03-23T09:11:23.838Z,999.23
2018-03-23T09:12:05.071Z,999.28
2018-03-23T09:12:45.837Z,999.23
2018-03-23T09:13:26.205Z,999.22
2018-03-23T09:14:06.534Z,999.19
2018-03-23T09:14:47.151Z,999.16
2018-03-23T09:15:27.868Z,999.15
2018-03-23T09:16:08.494Z,999.13
2018-03-23T09:16:50.626Z,999.13
2018-03-23T09:17:30.975Z,999.12
2018-03-23T09:18:11.771Z,999.12
2018-03-23T09:18:52.442Z,999.09
2018-03-23T09:19:32.836Z,999.1
2018-03-23T09:20:15.348Z,999.02
2018-03-23T09:20:55.912Z,999.06
2018-03-23T09:21:36.661Z,999.03
2018-03-23T09:22:17.714Z,999.01
2018-03-23T09:22:57.554Z,999.03
2018-03-23T09:23:38.123Z,999.06
2018-03-23T09:24:19.565Z,998.99
2018-03-23T09:25:00.563Z,998.99
2018-03-23T09:25:40.986Z,998.97
2018-03-23T09:26:21.587Z,998.94
2018-03-23T09:27:02.767Z,998.95
2018-03-23T09:27:43.330Z,998.88
2018-03-23T09:28:24.046Z,998.87
2018-03-23T09:29:04.456Z,998.84
2018-03-23T09:29:45.004Z,998.85
2018-03-23T09:30:25.318Z,998.78
2018-03-23T09:31:06.214Z,998.86
2018-03-23T09:31:46.644Z,998.83
2018-03-23T09:32:27.056Z,998.79
2018-03-23T09:33:08.371Z,998.82
2018-03-23T09:33:49.731Z,998.79
2018-03-23T09:34:30.167Z,998.8
2018-03-23T09:35:10.582Z,998.75
2018-03-23T09:35:51.732Z,998.74
2018-03-23T09:36:35.285Z,998.75
2018-03-23T09:37:15.549Z,998.75
2018-03-23T09:37:57.117Z,998.74
2018-03-23T09:38:41.467Z,998.74